Time,TemperatureF,DewpointF,PressureIn,WindDirection,WindDirectionDegrees,WindSpeedMPH,WindSpeedGustMPH,Humidity,HourlyPrecipIn,Conditions,Clouds,dailyrainin,SoftwareType,DateUTC
2015-07-06 00:05:00,65.7,62.7,30.07,South,172,0.0,0.0,90,0.00,,,0.00,Wunderground v.1.15,2015-07-06 04:05:00,
2015-07-06 00:10:00,65.6,62.6,30.07,South,172,0.0,0.0,90,0.00,,,0.00,Wunderground v.1.15,2015-07-06 04:10:00,
2015-07-06 00:20:00,65.5,62.5,30.07,South,172,0.0,0.0,90,0.00,,,0.00,Wunderground v.1.15,2015-07-06 04:20:00,
2015-07-06 00:30:00,65.4,62.7,30.07,South,172,0.0,0.0,91,0.00,,,0.00,Wunderground v.1.15,2015-07-06 04:30:00,
2015-07-06 00:40:00,65.7,63.0,30.06,South,172,0.0,0.0,91,0.00,,,0.00,Wunderground v.1.15,2015-07-06 04:40:00,
2015-07-06 00:50:00,65.7,63.0,30.06,South,172,0.0,0.0,91,0.00,,,0.00,Wunderground v.1.15,2015-07-06 04:50:00,
2015-07-06 00:55:00,65.6,62.9,30.06,South,172,0.0,0.0,91,0.00,,,0.00,Wunderground v.1.15,2015-07-06 04:55:00,
2015-07-06 01:05:00,65.5,62.8,30.06,South,172,0.0,0.0,91,0.00,,,0.00,Wunderground v.1.15,2015-07-06 05:05:00,
2015-07-06 01:15:00,65.7,63.3,30.05,South,170,0.0,0.0,92,0.00,,,0.00,Wunderground v.1.15,2015-07-06 05:15:00,
2015-07-06 01:25:00,65.6,63.2,30.05,South,171,0.0,0.0,92,0.00,,,0.00,Wunderground v.1.15,2015-07-06 05:25:00,
2015-07-06 01:30:00,65.5,62.8,30.05,South,170,0.0,0.0,91,0.00,,,0.00,Wunderground v.1.15,2015-07-06 05:30:00,
2015-07-06 01:40:00,65.3,62.6,30.04,South,170,0.0,0.0,91,0.00,,,0.00,Wunderground v.1.15,2015-07-06 05:40:00,
2015-07-06 01:50:00,65.2,62.8,30.04,South,170,0.0,0.0,92,0.00,,,0.00,Wunderground v.1.15,2015-07-06 05:50:00,
2015-07-06 02:00:00,65.0,62.6,30.04,South,170,0.0,0.0,92,0.00,,,0.00,Wunderground v.1.15,2015-07-06 06:00:00,
2015-07-06 02:05:00,65.1,62.7,30.03,South,170,0.0,0.0,92,0.00,,,0.00,Wunderground v.1.15,2015-07-06 06:05:00,
2015-07-06 02:15:00,64.9,62.5,30.03,South,170,0.0,0.0,92,0.00,,,0.00,Wunderground v.1.15,2015-07-06 06:15:00,
2015-07-06 02:25:00,64.9,62.5,30.03,South,171,0.0,0.0,92,0.00,,,0.00,Wunderground v.1.15,2015-07-06 06:25:00,
2015-07-06 02:35:00,64.6,62.2,30.03,South,170,0.0,0.0,92,0.00,,,0.00,Wunderground v.1.15,2015-07-06 06:35:00,
2015-07-06 02:45:00,64.3,61.9,30.03,South,170,0.0,0.0,92,0.00,,,0.00,Wunderground v.1.15,2015-07-06 06:45:00,
2015-07-06 02:50:00,64.0,61.6,30.03,South,170,0.0,0.0,92,0.00,,,0.00,Wunderground v.1.15,2015-07-06 06:50:00,
2015-07-06 03:00:00,63.8,61.4,30.02,South,170,0.0,0.0,92,0.00,,,0.00,Wunderground v.1.15,2015-07-06 07:00:00,
2015-07-06 03:10:00,63.6,61.5,30.02,South,171,0.0,0.0,93,0.00,,,0.00,Wunderground v.1.15,2015-07-06 07:10:00,
2015-07-06 03:15:00,63.6,61.5,30.03,South,170,0.0,0.0,93,0.00,,,0.00,Wunderground v.1.15,2015-07-06 07:15:00,
2015-07-06 03:25:00,63.2,60.8,30.03,South,170,0.0,0.0,92,0.00,,,0.00,Wunderground v.1.15,2015-07-06 07:25:00,
2015-07-06 03:35:00,63.2,61.1,30.02,South,171,0.0,0.0,93,0.00,,,0.00,Wunderground v.1.15,2015-07-06 07:35:00,
2015-07-06 03:45:00,63.0,60.9,30.02,South,170,0.0,0.0,93,0.00,,,0.00,Wunderground v.1.15,2015-07-06 07:45:00,
2015-07-06 03:50:00,62.8,60.7,30.02,South,170,0.0,0.0,93,0.00,,,0.00,Wunderground v.1.15,2015-07-06 07:50:00,
2015-07-06 04:00:00,62.5,60.4,30.02,South,170,0.0,0.0,93,0.00,,,0.00,Wunderground v.1.15,2015-07-06 08:00:00,
2015-07-06 04:10:00,62.3,60.2,30.03,South,171,0.0,0.0,93,0.00,,,0.00,Wunderground v.1.15,2015-07-06 08:10:00,
2015-07-06 04:20:00,62.1,60.1,30.03,South,170,0.0,0.0,93,0.00,,,0.00,Wunderground v.1.15,2015-07-06 08:20:00,
2015-07-06 04:25:00,62.0,60.0,30.03,South,170,0.0,0.0,93,0.00,,,0.00,Wunderground v.1.15,2015-07-06 08:25:00,
2015-07-06 04:35:00,61.8,59.8,30.04,South,170,0.0,0.0,93,0.00,,,0.00,Wunderground v.1.15,2015-07-06 08:35:00,
2015-07-06 04:45:00,62.0,60.3,30.04,South,170,0.0,0.0,94,0.00,,,0.00,Wunderground v.1.15,2015-07-06 08:45:00,
2015-07-06 04:55:00,61.7,60.0,30.04,South,170,0.0,0.0,94,0.00,,,0.00,Wunderground v.1.15,2015-07-06 08:55:00,
2015-07-06 05:05:00,61.8,60.1,30.04,South,170,0.0,0.0,94,0.00,,,0.00,Wunderground v.1.15,2015-07-06 09:05:00,
2015-07-06 05:10:00,61.7,60.0,30.04,South,171,0.0,0.0,94,0.00,,,0.00,Wunderground v.1.15,2015-07-06 09:10:00,
2015-07-06 05:20:00,61.2,59.2,30.04,South,170,0.0,0.0,93,0.00,,,0.00,Wunderground v.1.15,2015-07-06 09:20:00,
2015-07-06 05:30:00,61.3,59.6,30.05,South,171,0.0,0.0,94,0.00,,,0.00,Wunderground v.1.15,2015-07-06 09:30:00,
2015-07-06 05:35:00,61.4,59.7,30.05,South,170,0.0,0.0,94,0.00,,,0.00,Wunderground v.1.15,2015-07-06 09:35:00,
2015-07-06 05:40:00,61.2,59.5,30.06,South,171,0.0,0.0,94,0.00,,,0.00,Wunderground v.1.15,2015-07-06 09:40:00,
2015-07-06 05:50:00,60.9,59.2,30.06,South,171,0.0,0.0,94,0.00,,,0.00,Wunderground v.1.15,2015-07-06 09:50:00,
2015-07-06 05:55:00,60.8,59.1,30.07,South,171,0.0,0.0,94,0.00,,,0.00,Wunderground v.1.15,2015-07-06 09:55:00,
2015-07-06 06:05:00,60.7,59.0,30.07,South,170,0.0,0.0,94,0.00,,,0.00,Wunderground v.1.15,2015-07-06 10:05:00,
2015-07-06 06:15:00,60.7,59.0,30.07,South,170,0.0,0.0,94,0.00,,,0.00,Wunderground v.1.15,2015-07-06 10:15:00,
2015-07-06 06:20:00,60.5,58.8,30.07,South,171,0.0,0.0,94,0.00,,,0.00,Wunderground v.1.15,2015-07-06 10:20:00,
2015-07-06 06:30:00,60.2,58.5,30.07,South,171,0.0,0.0,94,0.00,,,0.00,Wunderground v.1.15,2015-07-06 10:30:00,
2015-07-06 06:40:00,60.7,59.3,30.08,South,170,0.0,0.0,95,0.00,,,0.00,Wunderground v.1.15,2015-07-06 10:40:00,
2015-07-06 06:50:00,60.4,58.7,30.08,South,170,0.0,0.0,94,0.00,,,0.00,Wunderground v.1.15,2015-07-06 10:50:00,
2015-07-06 07:00:00,60.3,58.6,30.08,South,170,0.0,0.0,94,0.00,,,0.00,Wunderground v.1.15,2015-07-06 11:00:00,
2015-07-06 07:05:00,60.4,59.0,30.08,South,170,0.0,0.0,95,0.00,,,0.00,Wunderground v.1.15,2015-07-06 11:05:00,
2015-07-06 07:15:00,60.4,59.0,30.08,South,171,0.0,0.0,95,0.00,,,0.00,Wunderground v.1.15,2015-07-06 11:15:00,
2015-07-06 07:25:00,60.8,59.4,30.08,South,170,0.0,0.0,95,0.00,,,0.00,Wunderground v.1.15,2015-07-06 11:25:00,
2015-07-06 07:35:00,61.1,59.7,30.08,South,170,0.0,0.0,95,0.00,,,0.00,Wunderground v.1.15,2015-07-06 11:35:00,
2015-07-06 07:40:00,61.2,59.8,30.07,South,171,0.0,0.0,95,0.00,,,0.00,Wunderground v.1.15,2015-07-06 11:40:00,
2015-07-06 07:50:00,62.0,60.6,30.08,South,170,0.0,0.0,95,0.00,,,0.00,Wunderground v.1.15,2015-07-06 11:50:00,
2015-07-06 08:00:00,62.5,61.0,30.09,South,173,0.0,0.0,95,0.00,,,0.00,Wunderground v.1.15,2015-07-06 12:00:00,
2015-07-06 08:10:00,62.9,61.4,30.09,South,173,0.0,0.0,95,0.00,,,0.00,Wunderground v.1.15,2015-07-06 12:10:00,
2015-07-06 08:20:00,63.6,62.1,30.09,South,173,0.0,0.0,95,0.00,,,0.00,Wunderground v.1.15,2015-07-06 12:20:00,
2015-07-06 08:25:00,64.1,62.6,30.09,South,173,0.0,0.0,95,0.00,,,0.00,Wunderground v.1.15,2015-07-06 12:25:00,
2015-07-06 08:35:00,64.8,63.3,30.09,South,173,0.0,0.0,95,0.00,,,0.00,Wunderground v.1.15,2015-07-06 12:35:00,
2015-07-06 08:45:00,65.5,64.0,30.08,South,173,0.0,0.0,95,0.00,,,0.00,Wunderground v.1.15,2015-07-06 12:45:00,
2015-07-06 08:55:00,66.0,64.5,30.09,SSE,148,0.0,0.0,95,0.00,,,0.00,Wunderground v.1.15,2015-07-06 12:55:00,
2015-07-06 09:00:00,66.4,64.9,30.09,SSE,162,0.0,0.0,95,0.00,,,0.00,Wunderground v.1.15,2015-07-06 13:00:00,
2015-07-06 09:10:00,67.4,65.6,30.09,South,179,0.0,0.0,94,0.00,,,0.00,Wunderground v.1.15,2015-07-06 13:10:00,
2015-07-06 09:20:00,68.1,65.7,30.10,West,277,0.0,2.0,92,0.00,,,0.00,Wunderground v.1.15,2015-07-06 13:20:00,
2015-07-06 09:30:00,70.0,66.0,30.10,SW,229,1.0,1.0,87,0.00,,,0.00,Wunderground v.1.15,2015-07-06 13:30:00,
2015-07-06 09:40:00,71.2,66.1,30.09,SSE,160,1.0,1.0,84,0.00,,,0.00,Wunderground v.1.15,2015-07-06 13:40:00,
2015-07-06 09:45:00,71.5,66.1,30.09,ESE,121,0.0,1.0,83,0.00,,,0.00,Wunderground v.1.15,2015-07-06 13:45:00,
2015-07-06 09:55:00,72.5,66.0,30.09,West,259,1.0,1.0,80,0.00,,,0.00,Wunderground v.1.15,2015-07-06 13:55:00,
2015-07-06 10:05:00,73.6,65.9,30.09,SW,236,1.0,1.0,77,0.00,,,0.00,Wunderground v.1.15,2015-07-06 14:05:00,
2015-07-06 10:15:00,74.5,66.1,30.09,SW,236,0.0,0.0,75,0.00,,,0.00,Wunderground v.1.15,2015-07-06 14:15:00,
2015-07-06 10:20:00,74.9,66.1,30.09,WNW,298,1.0,1.0,74,0.00,,,0.00,Wunderground v.1.15,2015-07-06 14:20:00,
2015-07-06 10:30:00,75.7,65.6,30.09,WNW,285,1.0,2.0,71,0.00,,,0.00,Wunderground v.1.15,2015-07-06 14:30:00,
2015-07-06 10:40:00,76.1,65.6,30.09,North,352,1.0,2.0,70,0.00,,,0.00,Wunderground v.1.15,2015-07-06 14:40:00,
2015-07-06 10:50:00,76.5,66.0,30.09,WSW,255,1.0,2.0,70,0.00,,,0.00,Wunderground v.1.15,2015-07-06 14:50:00,
2015-07-06 11:00:00,77.6,66.2,30.09,WSW,257,1.0,1.0,68,0.00,,,0.00,Wunderground v.1.15,2015-07-06 15:00:00,
2015-07-06 11:05:00,78.2,65.5,30.08,WSW,242,1.0,2.0,65,0.00,,,0.00,Wunderground v.1.15,2015-07-06 15:05:00,
2015-07-06 11:15:00,78.9,65.2,30.08,West,271,1.0,1.0,63,0.00,,,0.00,Wunderground v.1.15,2015-07-06 15:15:00,
2015-07-06 11:20:00,79.5,66.3,30.07,South,188,1.0,1.0,64,0.00,,,0.00,Wunderground v.1.15,2015-07-06 15:20:00,
2015-07-06 11:30:00,80.3,65.6,30.08,SE,124,0.0,2.0,61,0.00,,,0.00,Wunderground v.1.15,2015-07-06 15:30:00,
2015-07-06 11:40:00,80.8,66.1,30.07,SE,134,0.0,1.0,61,0.00,,,0.00,Wunderground v.1.15,2015-07-06 15:40:00,
2015-07-06 11:50:00,82.0,66.3,30.07,South,181,1.0,1.0,59,0.00,,,0.00,Wunderground v.1.15,2015-07-06 15:50:00,
2015-07-06 11:55:00,82.4,66.1,30.07,SE,135,0.0,1.0,58,0.00,,,0.00,Wunderground v.1.15,2015-07-06 15:55:00,
2015-07-06 12:05:00,82.2,65.4,30.07,SE,134,1.0,1.0,57,0.00,,,0.00,Wunderground v.1.15,2015-07-06 16:05:00,
2015-07-06 12:15:00,83.3,66.5,30.07,ESE,118,1.0,2.0,57,0.00,,,0.00,Wunderground v.1.15,2015-07-06 16:15:00,
2015-07-06 12:25:00,83.9,67.0,30.07,SW,236,1.0,2.0,57,0.00,,,0.00,Wunderground v.1.15,2015-07-06 16:25:00,
2015-07-06 12:35:00,83.1,66.3,30.08,West,262,2.0,2.0,57,0.00,,,0.00,Wunderground v.1.15,2015-07-06 16:35:00,
2015-07-06 12:40:00,82.9,67.1,30.07,NNW,339,1.0,4.0,59,0.00,,,0.00,Wunderground v.1.15,2015-07-06 16:40:00,
2015-07-06 12:50:00,84.0,67.6,30.07,NNE,19,1.0,2.0,58,0.00,,,0.00,Wunderground v.1.15,2015-07-06 16:50:00,
2015-07-06 13:00:00,83.9,67.5,30.07,WNW,294,1.0,1.0,58,0.00,,,0.00,Wunderground v.1.15,2015-07-06 17:00:00,
2015-07-06 13:05:00,84.3,67.4,30.07,SW,229,1.0,2.0,57,0.00,,,0.00,Wunderground v.1.15,2015-07-06 17:05:00,
2015-07-06 13:15:00,84.2,67.8,30.07,WSW,248,1.0,1.0,58,0.00,,,0.00,Wunderground v.1.15,2015-07-06 17:15:00,
2015-07-06 13:25:00,84.6,67.7,30.07,North,357,2.0,3.0,57,0.00,,,0.00,Wunderground v.1.15,2015-07-06 17:25:00,
2015-07-06 13:40:00,84.0,68.1,30.07,WNW,288,1.0,3.0,59,0.00,,,0.00,Wunderground v.1.15,2015-07-06 17:40:00,
2015-07-06 13:50:00,84.5,67.1,30.07,NW,305,1.0,1.0,56,0.00,,,0.00,Wunderground v.1.15,2015-07-06 17:50:00,
2015-07-06 14:00:00,84.5,66.6,30.07,WSW,253,2.0,2.0,55,0.00,,,0.00,Wunderground v.1.15,2015-07-06 18:00:00,
2015-07-06 14:10:00,84.8,67.4,30.07,WSW,242,1.0,4.0,56,0.00,,,0.00,Wunderground v.1.15,2015-07-06 18:10:00,
2015-07-06 14:20:00,84.7,66.7,30.06,West,277,2.0,2.0,55,0.00,,,0.00,Wunderground v.1.15,2015-07-06 18:20:00,
2015-07-06 14:30:00,85.1,66.6,30.06,West,259,2.0,5.0,54,0.00,,,0.00,Wunderground v.1.15,2015-07-06 18:30:00,
2015-07-06 14:40:00,86.2,68.1,30.05,North,7,1.0,1.0,55,0.00,,,0.00,Wunderground v.1.15,2015-07-06 18:40:00,
2015-07-06 14:45:00,86.5,67.3,30.05,SW,224,1.0,1.0,53,0.00,,,0.00,Wunderground v.1.15,2015-07-06 18:45:00,
2015-07-06 14:50:00,86.4,67.2,30.06,WNW,283,2.0,3.0,53,0.00,,,0.00,Wunderground v.1.15,2015-07-06 18:50:00,
2015-07-06 15:00:00,85.8,66.7,30.06,SSW,193,2.0,2.0,53,0.00,,,0.00,Wunderground v.1.15,2015-07-06 19:00:00,
2015-07-06 15:05:00,86.3,68.8,30.05,SW,214,2.0,2.0,56,0.00,,,0.00,Wunderground v.1.15,2015-07-06 19:05:00,
2015-07-06 15:15:00,87.4,68.2,30.05,SW,221,1.0,2.0,53,0.00,,,0.00,Wunderground v.1.15,2015-07-06 19:15:00,
2015-07-06 15:25:00,87.9,67.5,30.05,South,175,1.0,1.0,51,0.00,,,0.00,Wunderground v.1.15,2015-07-06 19:25:00,
2015-07-06 15:35:00,87.9,66.9,30.04,West,268,2.0,2.0,50,0.00,,,0.00,Wunderground v.1.15,2015-07-06 19:35:00,
2015-07-06 15:45:00,87.4,67.6,30.04,NW,322,1.0,2.0,52,0.00,,,0.00,Wunderground v.1.15,2015-07-06 19:45:00,
2015-07-06 15:50:00,87.9,68.1,30.03,ESE,111,1.0,1.0,52,0.00,,,0.00,Wunderground v.1.15,2015-07-06 19:50:00,
2015-07-06 16:00:00,88.9,69.0,30.03,West,265,1.0,1.0,52,0.00,,,0.00,Wunderground v.1.15,2015-07-06 20:00:00,